createdAt,value
2023-03-03T00:03:04.576Z,82.97
2023-03-03T00:08:06.651Z,83.12
2023-03-03T00:13:16.759Z,83.28
2023-03-03T00:18:36.125Z,83.44
2023-03-03T00:23:40.688Z,83.66
2023-03-03T00:28:52.903Z,83.70
2023-03-03T00:33:57.088Z,83.73
2023-03-03T00:39:38.037Z,83.63
2023-03-03T00:44:45.042Z,83.58
2023-03-03T00:50:07.104Z,83.57
2023-03-03T00:55:12.390Z,83.58
2023-03-03T01:00:15.578Z,83.53
2023-03-03T01:05:18.104Z,83.61
2023-03-03T01:10:20.037Z,83.64
2023-03-03T01:15:22.060Z,83.76
2023-03-03T01:20:23.992Z,83.85
2023-03-03T01:25:25.967Z,83.89
2023-03-03T01:30:28.586Z,83.61
2023-03-03T01:35:31.009Z,83.53
2023-03-03T01:40:32.935Z,83.90
2023-03-03T01:45:58.067Z,84.06
2023-03-03T01:51:09.786Z,83.58
2023-03-03T01:56:12.690Z,80.60
2023-03-03T02:01:20.623Z,79.19
2023-03-03T02:06:30.660Z,79.44
2023-03-03T02:11:34.940Z,80.96
2023-03-03T02:16:36.883Z,81.93
2023-03-03T02:21:38.872Z,82.84
2023-03-03T02:26:42.201Z,83.66
2023-03-03T02:31:45.285Z,84.00
2023-03-03T02:36:47.374Z,84.53
2023-03-03T02:42:23.824Z,84.67
2023-03-03T02:47:29.034Z,85.10
2023-03-03T02:52:31.003Z,85.30
2023-03-03T02:57:33.007Z,85.40
2023-03-03T03:02:35.097Z,85.47
2023-03-03T03:07:38.088Z,85.57
2023-03-03T03:12:40.890Z,85.39
2023-03-03T03:17:44.331Z,85.39
2023-03-03T03:22:47.725Z,85.44
2023-03-03T03:27:49.800Z,85.62
2023-03-03T03:32:51.996Z,86.00
2023-03-03T03:37:54.322Z,85.76
2023-03-03T03:42:56.924Z,85.51
2023-03-03T03:47:59.093Z,84.65
2023-03-03T03:53:01.694Z,84.83
2023-03-03T03:58:05.330Z,85.14
2023-03-03T04:03:08.858Z,85.42
2023-03-03T04:08:11.538Z,85.72
2023-03-03T04:13:13.704Z,85.80
2023-03-03T04:18:15.784Z,85.62
2023-03-03T04:23:21.196Z,85.67
2023-03-03T04:28:25.229Z,85.68
2023-03-03T04:33:27.472Z,85.81
2023-03-03T04:38:29.940Z,85.87
2023-03-03T04:43:32.053Z,85.94
2023-03-03T04:48:35.429Z,85.95
2023-03-03T04:53:38.413Z,86.07
2023-03-03T04:58:41.181Z,86.16
2023-03-03T05:03:43.299Z,86.16
2023-03-03T05:08:46.789Z,86.11
2023-03-03T05:13:48.714Z,86.10
2023-03-03T05:18:50.655Z,85.86
2023-03-03T05:23:52.761Z,86.20
2023-03-03T05:28:54.741Z,86.30
2023-03-03T05:33:56.712Z,86.42
2023-03-03T05:38:58.705Z,86.25
2023-03-03T05:44:00.554Z,86.26
2023-03-03T05:49:02.517Z,86.25
2023-03-03T05:54:04.522Z,85.90
2023-03-03T05:59:06.478Z,85.64
2023-03-03T06:04:08.782Z,85.55
2023-03-03T06:09:10.712Z,85.46
2023-03-03T06:14:12.660Z,85.56
2023-03-03T06:19:15.211Z,85.83
2023-03-03T06:24:17.235Z,85.61
2023-03-03T06:29:19.167Z,85.56
2023-03-03T06:34:21.349Z,85.58
2023-03-03T06:39:23.252Z,85.05
2023-03-03T06:44:27.666Z,84.69
2023-03-03T06:49:30.551Z,84.99
2023-03-03T06:54:32.699Z,85.05
2023-03-03T06:59:34.765Z,85.06
2023-03-03T07:04:36.835Z,84.97
2023-03-03T07:09:38.778Z,84.99
2023-03-03T07:14:47.342Z,84.98
2023-03-03T07:19:50.098Z,85.27
2023-03-03T07:24:54.703Z,85.36
2023-03-03T07:30:27.954Z,85.32
2023-03-03T07:35:39.463Z,84.96
2023-03-03T07:40:56.706Z,84.96
2023-03-03T07:46:11.549Z,85.28
2023-03-03T07:51:22.600Z,85.32
2023-03-03T07:56:35.338Z,84.47
2023-03-03T08:01:43.760Z,84.39
2023-03-03T08:06:48.693Z,84.56
2023-03-03T08:12:19.824Z,84.55
2023-03-03T08:17:24.617Z,84.66
2023-03-03T08:22:36.268Z,84.68
2023-03-03T08:27:38.057Z,84.80
2023-03-03T08:32:39.995Z,84.60
2023-03-03T08:37:42.209Z,84.35
2023-03-03T08:42:44.066Z,84.31
2023-03-03T08:47:46.054Z,84.26
2023-03-03T08:52:48.433Z,84.27
2023-03-03T08:57:50.619Z,84.15
2023-03-03T09:02:53.236Z,84.23
2023-03-03T09:07:55.913Z,83.91
2023-03-03T09:13:02.545Z,83.78
2023-03-03T09:18:20.150Z,83.47
2023-03-03T09:23:42.918Z,83.34
2023-03-03T09:28:45.013Z,82.47
2023-03-03T09:33:55.192Z,82.36
2023-03-03T09:38:57.767Z,82.21
2023-03-03T09:44:06.101Z,82.37
2023-03-03T09:49:59.664Z,82.01
2023-03-03T09:55:27.556Z,81.84
2023-03-03T10:00:41.334Z,81.34
2023-03-03T10:05:58.998Z,81.21
2023-03-03T10:11:41.825Z,81.53
2023-03-03T10:16:54.166Z,81.78
2023-03-03T10:22:06.128Z,81.38
2023-03-03T10:27:54.669Z,81.31
2023-03-03T10:33:05.472Z,81.50
2023-03-03T10:38:19.301Z,81.44
2023-03-03T10:43:36.733Z,81.01
2023-03-03T10:49:30.101Z,80.96
2023-03-03T10:54:56.442Z,80.71
2023-03-03T11:00:20.660Z,80.79
2023-03-03T11:05:35.049Z,81.20
2023-03-03T11:10:58.732Z,81.12
2023-03-03T11:16:21.722Z,80.75
2023-03-03T11:21:34.229Z,80.29
2023-03-03T11:26:51.634Z,80.04
2023-03-03T11:32:00.398Z,79.78
2023-03-03T11:37:08.715Z,79.89
2023-03-03T11:42:29.941Z,80.01
2023-03-03T11:47:56.850Z,79.75
2023-03-03T11:53:27.265Z,79.69
2023-03-03T11:58:40.352Z,79.82
2023-03-03T12:03:53.608Z,79.82
2023-03-03T12:09:17.736Z,79.55
2023-03-03T12:14:57.631Z,79.44
2023-03-03T12:20:25.820Z,78.72
2023-03-03T12:25:42.788Z,78.70
2023-03-03T12:31:06.776Z,78.59
2023-03-03T12:36:21.470Z,78.67
2023-03-03T12:41:37.130Z,78.44
2023-03-03T12:47:02.321Z,78.72
2023-03-03T12:52:29.046Z,78.46
2023-03-03T12:57:52.157Z,77.95
2023-03-03T13:03:06.622Z,77.35
2023-03-03T13:08:12.112Z,77.34
2023-03-03T13:13:37.561Z,77.45
2023-03-03T13:18:51.692Z,77.93
2023-03-03T13:24:19.178Z,77.52
2023-03-03T13:29:27.108Z,76.97
2023-03-03T13:35:03.429Z,76.26
2023-03-03T13:40:19.469Z,75.73
2023-03-03T13:45:50.352Z,75.58
2023-03-03T13:51:15.681Z,75.42
2023-03-03T13:56:20.623Z,74.57
2023-03-03T14:01:53.996Z,74.18
2023-03-03T14:07:03.744Z,73.94
2023-03-03T14:12:21.919Z,74.09
2023-03-03T14:17:34.651Z,73.76
2023-03-03T14:22:46.123Z,73.37
2023-03-03T14:27:48.425Z,73.47
2023-03-03T14:33:08.924Z,72.76
2023-03-03T14:38:24.280Z,73.27
2023-03-03T14:43:33.715Z,73.44
2023-03-03T14:48:51.076Z,73.88
2023-03-03T14:53:53.930Z,74.22
2023-03-03T14:59:14.721Z,74.28
2023-03-03T15:04:20.362Z,74.36
2023-03-03T15:09:48.991Z,74.78
2023-03-03T15:15:05.860Z,75.24
2023-03-03T15:20:43.863Z,75.38
2023-03-03T15:26:01.313Z,75.67
2023-03-03T15:31:15.360Z,76.24
2023-03-03T15:36:41.336Z,76.56
2023-03-03T15:41:43.422Z,76.98
2023-03-03T15:46:52.271Z,76.97
2023-03-03T15:52:22.637Z,77.04
2023-03-03T15:57:45.790Z,77.26
2023-03-03T16:02:58.720Z,77.22
2023-03-03T16:08:22.707Z,77.79
2023-03-03T16:13:36.359Z,78.17
2023-03-03T16:18:59.420Z,78.06
2023-03-03T16:24:29.146Z,78.16
2023-03-03T16:29:36.286Z,78.45
2023-03-03T16:34:54.720Z,78.62
2023-03-03T16:40:10.023Z,78.84
2023-03-03T16:45:26.779Z,79.12
2023-03-03T16:50:54.398Z,79.25
2023-03-03T16:56:18.847Z,79.53
2023-03-03T17:01:48.988Z,79.74
2023-03-03T17:06:55.514Z,79.57
2023-03-03T17:12:01.619Z,79.44
2023-03-03T17:17:26.689Z,79.09
2023-03-03T17:23:06.471Z,79.41
2023-03-03T17:28:29.120Z,79.21
2023-03-03T17:33:35.095Z,79.26
2023-03-03T17:38:51.050Z,79.45
2023-03-03T17:44:18.080Z,79.68
2023-03-03T17:49:59.363Z,79.84
2023-03-03T17:55:42.937Z,79.77
2023-03-03T18:01:00.672Z,80.00
2023-03-03T18:06:24.251Z,80.20
2023-03-03T18:11:52.763Z,80.27
2023-03-03T18:17:05.606Z,80.21
2023-03-03T18:22:14.080Z,79.95
2023-03-03T18:27:25.882Z,79.78
2023-03-03T18:32:41.850Z,79.71
2023-03-03T18:37:45.609Z,78.70
2023-03-03T18:42:49.942Z,78.59
2023-03-03T18:48:01.606Z,78.76
2023-03-03T18:53:15.886Z,78.76
2023-03-03T18:58:21.182Z,78.78
2023-03-03T19:03:29.848Z,78.59
2023-03-03T19:08:53.936Z,78.58
2023-03-03T19:14:15.351Z,78.63
2023-03-03T19:19:20.265Z,78.90
2023-03-03T19:25:01.544Z,78.88
2023-03-03T19:30:27.017Z,78.56
2023-03-03T19:35:37.871Z,78.40
2023-03-03T19:41:00.769Z,78.45
2023-03-03T19:46:13.290Z,78.63
2023-03-03T19:51:25.312Z,78.73
2023-03-03T19:56:47.447Z,78.70
2023-03-03T20:02:12.701Z,78.88
2023-03-03T20:08:00.035Z,78.88
2023-03-03T20:13:24.482Z,79.03
2023-03-03T20:18:42.240Z,79.09
2023-03-03T20:24:06.902Z,79.20
2023-03-03T20:29:26.147Z,79.39
2023-03-03T20:34:41.588Z,79.31
2023-03-03T20:39:43.888Z,79.04
2023-03-03T20:45:09.810Z,78.76
2023-03-03T20:50:26.131Z,78.73
2023-03-03T20:55:57.588Z,79.08
2023-03-03T21:01:10.494Z,79.34
2023-03-03T21:06:15.698Z,79.29
2023-03-03T21:11:21.304Z,79.30
2023-03-03T21:16:23.224Z,79.38
2023-03-03T21:21:27.744Z,79.34
2023-03-03T21:26:50.170Z,78.90
2023-03-03T21:31:59.462Z,79.17
2023-03-03T21:37:06.911Z,79.00
2023-03-03T21:42:30.496Z,78.62
2023-03-03T21:47:35.615Z,78.86
2023-03-03T21:52:39.044Z,78.99
2023-03-03T21:57:41.941Z,78.70
2023-03-03T22:02:44.156Z,78.79
2023-03-03T22:07:46.690Z,78.96
2023-03-03T22:12:53.945Z,79.07
2023-03-03T22:18:02.659Z,79.04
2023-03-03T22:23:05.199Z,78.92
2023-03-03T22:28:07.853Z,78.58
2023-03-03T22:33:10.424Z,78.40
2023-03-03T22:38:12.543Z,78.39
2023-03-03T22:43:21.958Z,78.60
2023-03-03T22:48:26.754Z,78.45
2023-03-03T22:53:32.770Z,78.50
2023-03-03T22:58:34.780Z,78.70
2023-03-03T23:03:37.310Z,78.77
2023-03-03T23:08:39.501Z,78.80
2023-03-03T23:13:41.670Z,78.98
2023-03-03T23:18:43.821Z,79.30
2023-03-03T23:23:46.229Z,79.29
2023-03-03T23:28:48.326Z,79.44
2023-03-03T23:33:50.408Z,79.60
2023-03-03T23:38:52.518Z,79.82
2023-03-03T23:43:54.461Z,80.06
2023-03-03T23:48:56.683Z,79.78
2023-03-03T23:53:59.416Z,79.67
2023-03-03T23:59:01.618Z,79.80
